Time;durP1;ratioP1;P1;durP2;ratioP2;P2;SDS_P1;SDS_P2;PMS_P1;PMS_P2;Temp;Humidity;BMP_temperature;BMP_pressure;BME280_temperature;BME280_humidity;BME280_pressure;Samples;Min_cycle;Max_cycle;Signal;HPM_P1;HPM_P2
2022/01/18 00:01:07;;;;;;;2.50;2.40;;;;;;;3.39;100.00;100647.00;4881625;29;20391;-70
2022/01/18 00:03:32;;;;;;;3.20;1.98;;;;;;;3.44;100.00;100645.50;4881158;29;20269;-70
2022/01/18 00:05:58;;;;;;;14.93;3.50;;;;;;;3.43;100.00;100651.41;4881173;29;20032;-70
2022/01/18 00:08:23;;;;;;;2.30;2.15;;;;;;;3.49;100.00;100638.84;4881356;29;20029;-70
2022/01/18 00:10:49;;;;;;;3.22;2.55;;;;;;;3.49;100.00;100633.72;4895656;29;20043;-69
2022/01/18 00:18:30;;;;;;;3.20;1.88;;;;;;;3.48;100.00;100649.91;4881147;29;20025;-71
2022/01/18 00:23:30;;;;;;;1.92;1.77;;;;;;;3.48;100.00;100667.84;4881175;29;20055;-69
2022/01/18 00:25:57;;;;;;;2.55;2.35;;;;;;;3.64;100.00;100662.53;4881001;29;20114;-70
2022/01/18 00:28:25;;;;;;;11.65;2.88;;;;;;;3.53;100.00;100667.22;4880949;29;20025;-69
2022/01/18 00:34:01;;;;;;;3.03;2.63;;;;;;;3.58;100.00;100654.59;4881041;29;20394;-70
2022/01/18 00:39:06;;;;;;;4.63;2.95;;;;;;;3.85;100.00;100660.81;4880703;29;20033;-70
2022/01/18 00:41:32;;;;;;;3.53;1.63;;;;;;;3.82;100.00;100667.50;4881077;29;20036;-70
2022/01/18 00:43:58;;;;;;;3.78;3.30;;;;;;;3.99;100.00;100673.31;4880858;29;20021;-70
2022/01/18 00:46:23;;;;;;;2.65;2.53;;;;;;;3.83;100.00;100667.59;4880560;29;20025;-69
2022/01/18 00:48:52;;;;;;;1.35;1.25;;;;;;;4.04;100.00;100666.66;4880612;29;20060;-69
2022/01/18 00:51:18;;;;;;;3.08;2.80;;;;;;;3.79;100.00;100669.97;4880754;29;20032;-70
2022/01/18 00:53:46;;;;;;;2.15;2.05;;;;;;;3.80;100.00;100664.88;4880584;29;20036;-69
2022/01/18 00:58:39;;;;;;;1.35;1.35;;;;;;;3.70;100.00;100667.91;4880270;29;20125;-70
2022/01/18 05:22:59;;;;;;;4.30;3.92;;;;;;;3.78;100.00;100730.63;4919145;29;20040;-78
2022/01/18 05:25:26;;;;;;;2.72;2.53;;;;;;;3.76;100.00;100727.09;4917601;29;20048;-78
2022/01/18 05:27:51;;;;;;;2.47;2.28;;;;;;;3.62;100.00;100738.47;4917576;29;20031;-78
2022/01/18 05:30:17;;;;;;;7.18;4.43;;;;;;;3.57;100.00;100735.72;4893758;29;20040;-71
2022/01/18 05:32:42;;;;;;;8.30;4.97;;;;;;;3.49;100.00;100738.78;4925742;29;20114;-71
2022/01/18 05:35:08;;;;;;;5.07;3.33;;;;;;;3.45;100.00;100749.72;4917394;29;20058;-71
2022/01/18 05:37:34;;;;;;;10.43;3.05;;;;;;;3.57;100.00;100739.97;4917354;29;20035;-71
2022/01/18 05:39:59;;;;;;;7.85;3.83;;;;;;;3.61;100.00;100746.97;4917298;29;20084;-71
2022/01/18 05:42:24;;;;;;;4.88;3.28;;;;;;;3.51;100.00;100749.97;4917384;29;20028;-71
2022/01/18 05:44:50;;;;;;;6.82;4.43;;;;;;;3.48;100.00;100755.84;4917317;29;20486;-69
2022/01/18 05:47:15;;;;;;;3.85;3.38;;;;;;;3.50;100.00;100749.09;4917043;29;20107;-71
2022/01/18 05:49:40;;;;;;;4.07;3.67;;;;;;;3.52;100.00;100751.72;4917366;29;20084;-72
2022/01/18 05:52:06;;;;;;;2.55;1.70;;;;;;;3.52;100.00;100747.47;4917129;29;20039;-71
2022/01/18 05:54:31;;;;;;;3.10;2.70;;;;;;;3.57;100.00;100745.09;4917286;29;20038;-71
2022/01/18 05:56:56;;;;;;;3.47;3.17;;;;;;;3.63;100.00;100750.50;4916811;29;20044;-71
2022/01/18 05:59:23;;;;;;;3.72;3.25;;;;;;;3.57;100.00;100760.47;4917015;29;20029;-76
2022/01/18 06:01:51;;;;;;;12.50;4.93;;;;;;;3.53;100.00;100754.38;4917243;29;20027;-75
2022/01/18 06:07:20;;;;;;;4.82;2.67;;;;;;;3.43;100.00;100761.56;4895382;29;20084;-72
2022/01/18 06:09:45;;;;;;;4.35;2.83;;;;;;;3.46;100.00;100761.72;4895766;29;20067;-72
2022/01/18 06:12:11;;;;;;;3.92;2.65;;;;;;;3.52;100.00;100761.97;4896725;29;20040;-72
2022/01/18 06:14:36;;;;;;;9.43;5.50;;;;;;;3.68;100.00;100758.38;4897894;29;20478;-72
2022/01/18 06:17:01;;;;;;;5.07;4.47;;;;;;;3.58;100.00;100759.69;4897444;29;20049;-74
2022/01/18 06:19:27;;;;;;;3.67;2.75;;;;;;;3.51;100.00;100760.22;4897738;29;20390;-73
2022/01/18 06:21:52;;;;;;;3.67;2.45;;;;;;;3.51;100.00;100762.78;4897724;29;20493;-73
2022/01/18 06:24:17;;;;;;;5.13;4.25;;;;;;;3.49;100.00;100755.03;4897549;29;20043;-70
2022/01/18 06:26:43;;;;;;;5.30;4.90;;;;;;;3.52;100.00;100767.09;4896300;29;20031;-72
2022/01/18 06:29:08;;;;;;;8.43;5.75;;;;;;;3.54;100.00;100766.38;4897606;29;20016;-72
2022/01/18 06:31:33;;;;;;;8.35;5.75;;;;;;;3.59;100.00;100771.69;4907074;29;20032;-72
2022/01/18 06:33:59;;;;;;;9.85;5.45;;;;;;;3.51;100.00;100765.34;4916197;29;20403;-72
2022/01/18 06:36:24;;;;;;;3.50;3.30;;;;;;;3.57;100.00;100770.72;4916156;29;20028;-73
2022/01/18 06:38:50;;;;;;;2.92;2.72;;;;;;;3.54;100.00;100780.88;4916247;29;20020;-73
2022/01/18 06:41:15;;;;;;;2.63;2.42;;;;;;;3.56;100.00;100776.66;4916327;29;20040;-73
2022/01/18 06:43:40;;;;;;;5.28;3.83;;;;;;;3.48;100.00;100778.03;4916265;29;20028;-73
2022/01/18 06:46:06;;;;;;;11.77;3.47;;;;;;;3.53;100.00;100779.09;4916122;29;20039;-73
2022/01/18 06:48:31;;;;;;;4.13;1.98;;;;;;;3.52;100.00;100777.34;4916218;29;20087;-72
2022/01/18 06:50:57;;;;;;;4.45;2.58;;;;;;;3.30;100.00;100791.81;4916533;29;20028;-72
2022/01/18 06:53:22;;;;;;;4.38;3.42;;;;;;;3.30;100.00;100786.69;4915552;29;20040;-72
2022/01/18 06:55:54;;;;;;;4.60;2.58;;;;;;;3.26;100.00;100795.03;4915909;29;20091;-73
2022/01/18 06:58:20;;;;;;;3.67;2.17;;;;;;;3.31;100.00;100796.13;4929792;29;20051;-73
2022/01/18 07:00:46;;;;;;;3.72;2.85;;;;;;;3.32;100.00;100804.66;4915824;29;20047;-73
2022/01/18 07:03:11;;;;;;;3.85;2.83;;;;;;;3.27;100.00;100801.91;4915896;29;20046;-73
2022/01/18 07:05:37;;;;;;;4.95;2.95;;;;;;;3.25;100.00;100802.66;4915658;29;20557;-73
2022/01/18 07:08:02;;;;;;;4.22;2.88;;;;;;;3.09;100.00;100795.97;4915748;29;20050;-73
2022/01/18 07:10:31;;;;;;;3.40;2.92;;;;;;;2.99;100.00;100798.94;4915950;29;20034;-73
2022/01/18 07:12:57;;;;;;;3.75;3.40;;;;;;;2.96;100.00;100794.56;4916096;29;20028;-73
2022/01/18 07:15:22;;;;;;;5.25;3.40;;;;;;;2.87;100.00;100803.50;4915665;29;20024;-73
2022/01/18 07:17:48;;;;;;;4.07;3.67;;;;;;;2.95;100.00;100797.94;4915773;29;20036;-72
2022/01/18 07:20:13;;;;;;;4.88;3.83;;;;;;;2.91;100.00;100800.28;4915613;29;20029;-72
2022/01/18 07:22:42;;;;;;;2.60;2.05;;;;;;;2.72;100.00;100804.56;4915748;29;20024;-73
2022/01/18 07:25:11;;;;;;;5.65;2.72;;;;;;;2.69;100.00;100806.97;4915678;29;20477;-73
2022/01/18 07:27:37;;;;;;;6.55;3.30;;;;;;;2.72;100.00;100807.13;4915645;29;20440;-72
2022/01/18 07:30:03;;;;;;;2.15;1.95;;;;;;;2.52;100.00;100810.44;4915630;29;20020;-73
2022/01/18 07:32:28;;;;;;;4.03;3.45;;;;;;;2.44;100.00;100821.97;4915726;29;20035;-73
2022/01/18 07:34:55;;;;;;;3.13;2.83;;;;;;;2.27;100.00;100827.19;4915532;29;20027;-72
2022/01/18 07:37:22;;;;;;;3.17;2.80;;;;;;;2.22;100.00;100828.59;4915724;29;20466;-73
2022/01/18 07:39:49;;;;;;;1.95;1.85;;;;;;;2.31;100.00;100836.72;4915799;29;20401;-73
2022/01/18 07:42:16;;;;;;;3.45;1.77;;;;;;;2.23;100.00;100838.06;4915580;29;20536;-72
2022/01/18 07:44:42;;;;;;;2.15;2.05;;;;;;;2.51;100.00;100839.38;4915727;29;20036;-72
2022/01/18 07:47:07;;;;;;;2.97;2.83;;;;;;;2.44;100.00;100840.75;4915380;29;20041;-72
2022/01/18 07:49:32;;;;;;;4.13;2.97;;;;;;;2.51;100.00;100844.47;4915619;29;20030;-72
2022/01/18 07:51:58;;;;;;;5.55;2.38;;;;;;;2.61;100.00;100841.59;4915431;29;20028;-72
2022/01/18 07:54:23;;;;;;;4.30;2.92;;;;;;;2.67;100.00;100846.97;4915956;29;20243;-73
2022/01/18 07:56:48;;;;;;;1.83;1.73;;;;;;;2.71;100.00;100838.66;4915216;29;20028;-72
2022/01/18 07:59:13;;;;;;;2.35;2.15;;;;;;;2.63;100.00;100845.06;4915307;29;20403;-72
2022/01/18 08:01:42;;;;;;;3.65;1.58;;;;;;;2.93;100.00;100839.63;4915321;29;20386;-72
2022/01/18 08:04:07;;;;;;;5.50;3.30;;;;;;;2.93;100.00;100842.19;4915230;29;20546;-72
2022/01/18 08:06:32;;;;;;;3.33;3.03;;;;;;;2.96;100.00;100842.34;4918579;29;20036;-72
2022/01/18 08:08:58;;;;;;;3.38;2.03;;;;;;;3.26;100.00;100841.16;4919065;29;20062;-72
2022/01/18 08:11:23;;;;;;;3.03;2.83;;;;;;;3.34;100.00;100844.94;4919002;29;20294;-72
2022/01/18 08:13:50;;;;;;;9.18;4.40;;;;;;;3.33;100.00;100839.72;4918920;29;20123;-73
2022/01/18 08:18:57;;;;;;;3.80;1.92;;;;;;;3.78;99.15;100843.44;4918744;29;20434;-73
2022/01/18 08:21:23;;;;;;;2.85;2.65;;;;;;;4.05;98.25;100847.94;4933435;29;20118;-73
2022/01/18 08:23:48;;;;;;;5.72;2.83;;;;;;;3.88;97.21;100833.56;4918764;29;20024;-71
2022/01/18 08:26:14;;;;;;;4.75;2.35;;;;;;;3.94;97.22;100833.81;4918671;29;20123;-70
2022/01/18 08:28:39;;;;;;;3.08;2.83;;;;;;;4.12;96.01;100839.69;4918478;29;20028;-70
2022/01/18 08:31:05;;;;;;;3.95;3.08;;;;;;;4.19;94.61;100844.25;4918488;29;20046;-71
2022/01/18 08:33:31;;;;;;;7.85;2.50;;;;;;;3.92;95.15;100851.72;4918318;29;20393;-70
2022/01/18 08:35:59;;;;;;;5.38;3.15;;;;;;;3.78;96.40;100853.69;4910827;29;20066;-71
2022/01/18 08:38:25;;;;;;;2.47;1.70;;;;;;;4.04;94.83;100856.47;4918498;29;20103;-70
2022/01/18 08:40:51;;;;;;;5.60;2.72;;;;;;;4.24;93.20;100849.56;4918535;29;20028;-70
2022/01/18 08:43:16;;;;;;;5.05;4.20;;;;;;;4.34;93.26;100846.56;4918464;29;20032;-71
2022/01/18 08:45:42;;;;;;;3.17;2.90;;;;;;;4.81;91.81;100845.88;4918263;29;20028;-70
2022/01/18 08:48:07;;;;;;;3.42;2.80;;;;;;;4.81;89.76;100845.00;4918116;29;20059;-70
2022/01/18 08:50:33;;;;;;;4.88;2.53;;;;;;;4.55;90.78;100854.28;4918586;29;20106;-71
2022/01/18 08:52:58;;;;;;;10.48;5.05;;;;;;;4.60;91.27;100851.06;4918238;29;20031;-71
2022/01/18 08:55:24;;;;;;;3.95;3.50;;;;;;;4.32;92.20;100850.78;4918009;29;20047;-71
2022/01/18 08:57:49;;;;;;;3.63;3.28;;;;;;;4.46;91.89;100853.91;4917916;29;20529;-71
2022/01/18 09:00:16;;;;;;;3.55;2.97;;;;;;;4.56;91.32;100858.59;4917932;29;20043;-71
2022/01/18 09:02:42;;;;;;;2.45;1.75;;;;;;;4.71;89.76;100848.91;4917943;29;20441;-70
2022/01/18 09:05:08;;;;;;;3.78;3.33;;;;;;;4.98;88.43;100849.09;4917894;29;20027;-70
2022/01/18 09:07:36;;;;;;;3.30;2.40;;;;;;;5.14;86.77;100846.28;4917894;29;20028;-70
2022/01/18 09:10:06;;;;;;;6.97;3.10;;;;;;;4.87;87.75;100851.25;4918064;29;20024;-71
2022/01/18 09:12:36;;;;;;;9.90;4.88;;;;;;;4.85;87.89;100858.03;4917960;29;20107;-70
2022/01/18 09:15:04;;;;;;;4.82;2.10;;;;;;;5.29;86.19;100851.13;4917661;29;20020;-71
2022/01/18 09:17:30;;;;;;;5.25;4.20;;;;;;;6.55;81.11;100851.16;4917331;29;20043;-71
2022/01/18 09:19:56;;;;;;;3.92;2.00;;;;;;;7.59;75.63;100837.88;4917720;29;20024;-71
2022/01/18 09:22:22;;;;;;;4.80;3.05;;;;;;;7.42;75.45;100846.03;4917775;29;20060;-70
2022/01/18 09:24:48;;;;;;;6.93;3.38;;;;;;;7.27;76.63;100845.59;4917547;29;20111;-71
2022/01/18 09:27:13;;;;;;;7.43;4.13;;;;;;;8.28;72.30;100848.31;4917729;29;20020;-71
2022/01/18 09:29:41;;;;;;;3.47;3.15;;;;;;;9.40;67.37;100843.06;4917428;29;20024;-71
2022/01/18 09:32:07;;;;;;;4.28;3.58;;;;;;;11.41;61.77;100835.09;4917505;29;20051;-71
2022/01/18 09:34:33;;;;;;;5.40;3.17;;;;;;;11.55;58.85;100838.69;4917469;29;20083;-71
2022/01/18 09:36:59;;;;;;;7.15;3.33;;;;;;;9.31;64.80;100851.50;4917252;29;20075;-71
2022/01/18 09:39:26;;;;;;;6.97;3.80;;;;;;;8.08;71.23;100854.69;4917380;29;20039;-71
2022/01/18 09:41:54;;;;;;;3.47;3.03;;;;;;;8.32;71.01;100865.63;4917288;29;20113;-71
2022/01/18 09:44:20;;;;;;;6.57;3.13;;;;;;;8.50;69.06;100866.09;4917221;29;20039;-71
2022/01/18 09:46:48;;;;;;;6.70;2.45;;;;;;;9.92;65.53;100863.06;4917219;29;20036;-71
2022/01/18 09:49:13;;;;;;;6.13;3.17;;;;;;;9.11;66.89;100870.91;4917224;29;20083;-71
2022/01/18 09:51:39;;;;;;;3.88;2.55;;;;;;;10.98;61.44;100865.69;4917315;29;20028;-71
2022/01/18 09:54:04;;;;;;;4.05;2.67;;;;;;;12.52;55.60;100863.94;4917217;29;20028;-71
2022/01/18 09:56:30;;;;;;;4.25;2.95;;;;;;;12.25;56.06;100863.69;4916824;29;20123;-71
2022/01/18 09:58:56;;;;;;;5.82;2.97;;;;;;;13.51;53.67;100861.03;4916760;29;20032;-71
2022/01/18 10:01:21;;;;;;;4.85;2.80;;;;;;;13.62;53.02;100859.31;4917006;29;20106;-71
2022/01/18 10:03:46;;;;;;;4.75;2.75;;;;;;;13.31;51.80;100857.50;4916891;29;20469;-71
2022/01/18 10:06:12;;;;;;;5.32;3.17;;;;;;;14.23;48.20;100858.59;4916684;29;20036;-71
2022/01/18 10:08:41;;;;;;;6.80;3.63;;;;;;;17.45;42.77;100852.34;4916950;29;20028;-71
2022/01/18 10:11:10;;;;;;;6.78;2.83;;;;;;;16.92;42.38;100841.66;4916862;29;20458;-71
2022/01/18 10:13:36;;;;;;;4.90;2.22;;;;;;;15.23;46.88;100850.63;4915539;29;20481;-71
2022/01/18 10:16:06;;;;;;;3.90;2.65;;;;;;;15.26;46.32;100850.63;4916736;29;20052;-71
2022/01/18 10:18:45;;;;;;;4.43;2.65;;;;;;;15.43;45.39;100844.47;4916697;29;20043;-71
2022/01/18 10:21:24;;;;;;;7.10;2.95;;;;;;;15.36;45.26;100841.88;4916828;29;20055;-71
2022/01/18 10:23:50;;;;;;;4.95;2.08;;;;;;;14.92;46.59;100845.50;4916654;29;20027;-71
2022/01/18 10:26:23;;;;;;;5.70;2.72;;;;;;;17.65;41.44;100839.00;4916275;29;20035;-71
2022/01/18 10:29:01;;;;;;;5.47;2.58;;;;;;;18.43;39.44;100829.97;4907243;29;20028;-71
2022/01/18 10:31:43;;;;;;;7.55;3.28;;;;;;;17.16;41.35;100831.75;4916430;29;20027;-72
2022/01/18 10:34:14;;;;;;;7.35;3.13;;;;;;;18.51;38.31;100822.78;4909191;29;20027;-71
2022/01/18 10:37:09;;;;;;;5.80;3.45;;;;;;;18.24;38.31;100819.75;4916149;29;20064;-72
2022/01/18 10:39:41;;;;;;;7.55;3.67;;;;;;;17.53;40.39;100829.53;4915878;29;20131;-71
2022/01/18 10:42:17;;;;;;;4.72;2.75;;;;;;;17.37;41.04;100822.78;4916437;29;20545;-71
2022/01/18 10:44:46;;;;;;;3.95;2.47;;;;;;;17.56;40.39;100826.88;4916221;29;20394;-72
2022/01/18 10:47:12;;;;;;;5.25;2.50;;;;;;;17.05;40.25;100816.16;4916261;29;20024;-72
2022/01/18 10:49:40;;;;;;;2.33;1.92;;;;;;;16.91;41.49;100807.59;4916139;29;20482;-71
2022/01/18 10:52:12;;;;;;;4.22;1.85;;;;;;;16.02;43.09;100813.63;4931084;29;20039;-71
2022/01/18 10:54:42;;;;;;;2.40;1.23;;;;;;;14.27;46.56;100804.69;4916255;29;20443;-71
2022/01/18 10:57:11;;;;;;;2.95;1.88;;;;;;;10.90;55.82;100819.72;4916351;29;20031;-71
2022/01/18 10:59:38;;;;;;;4.07;1.70;;;;;;;9.16;60.88;100830.50;4915896;29;20076;-71
2022/01/18 11:02:14;;;;;;;4.32;2.15;;;;;;;8.06;66.34;100825.34;4915927;29;20043;-71
2022/01/18 11:04:48;;;;;;;3.70;1.70;;;;;;;7.99;68.67;100819.19;4915889;29;20040;-71
2022/01/18 11:07:16;;;;;;;7.43;2.35;;;;;;;10.29;61.92;100802.41;4915868;29;20493;-71
2022/01/18 11:09:42;;;;;;;3.75;2.60;;;;;;;11.71;56.76;100797.34;4915802;29;20477;-71
2022/01/18 11:12:09;;;;;;;5.03;2.28;;;;;;;13.17;52.58;100786.25;4916139;29;20103;-71
2022/01/18 11:14:38;;;;;;;4.25;1.88;;;;;;;12.38;53.78;100790.16;4915732;29;20036;-71
2022/01/18 11:17:06;;;;;;;3.97;1.63;;;;;;;14.21;48.21;100783.81;4930232;29;20036;-71
2022/01/18 11:19:34;;;;;;;1.17;1.13;;;;;;;16.08;43.16;100771.75;4930310;29;20405;-71
2022/01/18 11:22:04;;;;;;;6.22;2.55;;;;;;;14.41;45.77;100784.69;4915930;29;20028;-71
2022/01/18 11:24:30;;;;;;;3.05;1.85;;;;;;;13.99;47.97;100785.56;4915649;29;20051;-71
2022/01/18 11:26:56;;;;;;;1.23;1.13;;;;;;;14.64;45.90;100780.31;4915466;29;20515;-72
2022/01/18 11:29:22;;;;;;;3.05;1.70;;;;;;;14.94;44.57;100773.28;4915376;29;20031;-71
2022/01/18 11:31:49;;;;;;;3.53;1.95;;;;;;;15.31;45.01;100778.34;4922157;23;20048;-71
2022/01/18 11:34:45;;;;;;;4.32;1.50;;;;;;;14.32;45.37;100769.06;4915500;29;20048;-71
2022/01/18 11:37:45;;;;;;;3.33;2.45;;;;;;;15.02;45.46;100763.66;4915377;29;20032;-71
2022/01/18 11:40:14;;;;;;;2.28;1.60;;;;;;;13.53;47.28;100770.75;4903313;29;20493;-71
2022/01/18 11:42:50;;;;;;;3.17;1.88;;;;;;;12.73;50.01;100773.91;4919322;29;20040;-71
2022/01/18 11:45:24;;;;;;;7.07;2.67;;;;;;;11.77;51.45;100777.47;4919284;29;20083;-71
2022/01/18 11:48:12;;;;;;;2.83;1.33;;;;;;;9.98;58.42;100780.31;4919205;29;20064;-71
2022/01/18 11:50:42;;;;;;;1.58;1.45;;;;;;;8.16;62.39;100786.00;4918530;29;20103;-71
2022/01/18 11:53:26;;;;;;;3.10;1.05;;;;;;;7.59;64.80;100792.34;4919225;29;20032;-70
2022/01/18 11:55:56;;;;;;;6.82;1.23;;;;;;;6.41;68.69;100799.22;4918976;29;20035;-71
2022/01/18 11:58:23;;;;;;;1.67;1.58;;;;;;;6.27;69.98;100797.03;4918626;29;20059;-70
2022/01/18 12:00:58;;;;;;;1.67;1.55;;;;;;;5.92;72.82;100799.34;4918667;29;20088;-71
2022/01/18 12:03:27;;;;;;;2.03;1.67;;;;;;;5.77;72.59;100788.50;4918909;29;20024;-70
2022/01/18 12:05:54;;;;;;;1.55;1.10;;;;;;;5.63;73.75;100788.03;4918726;29;20448;-70
2022/01/18 12:08:30;;;;;;;1.85;1.02;;;;;;;5.67;74.11;100782.19;4918102;29;20052;-71
2022/01/18 12:10:56;;;;;;;0.80;0.80;;;;;;;6.14;74.03;100790.63;4918947;29;20032;-70
2022/01/18 12:13:27;;;;;;;1.50;1.40;;;;;;;9.47;63.20;100767.31;4919193;29;20028;-73
2022/01/18 12:15:56;;;;;;;5.55;0.95;;;;;;;8.68;63.69;100771.75;4918897;29;20071;-72
2022/01/18 12:18:30;;;;;;;2.45;1.42;;;;;;;9.13;61.33;100765.78;4918850;29;20028;-71
2022/01/18 12:20:57;;;;;;;1.48;1.15;;;;;;;10.47;56.36;100752.59;4919012;29;20032;-71
2022/01/18 12:23:34;;;;;;;4.03;1.40;;;;;;;9.50;58.60;100762.19;4918761;29;20055;-71
2022/01/18 12:26:26;;;;;;;1.83;1.73;;;;;;;8.37;61.27;100776.25;4918649;29;20028;-70
2022/01/18 12:34:33;;;;;;;1.75;1.13;;;;;;;6.69;68.00;100767.47;4912975;29;20028;-70
2022/01/18 12:37:27;;;;;;;1.00;0.98;;;;;;;7.00;66.75;100763.19;4918503;29;20024;-70
2022/01/18 12:39:57;;;;;;;0.88;0.88;;;;;;;6.51;68.96;100771.19;4918331;29;20034;-70
2022/01/18 12:45:08;;;;;;;0.52;0.52;;;;;;;6.93;68.44;100757.00;4918466;29;20032;-70
2022/01/18 12:47:36;;;;;;;0.70;0.70;;;;;;;6.30;70.80;100756.84;4918200;29;20036;-70
2022/01/18 12:50:07;;;;;;;3.05;1.13;;;;;;;5.88;72.48;100762.31;4917729;29;20036;-70
2022/01/18 12:52:54;;;;;;;0.98;0.95;;;;;;;5.66;73.20;100759.88;4918395;29;20027;-70
2022/01/18 12:55:44;;;;;;;0.75;0.75;;;;;;;5.65;73.58;100763.25;4918289;29;20034;-70
2022/01/18 12:58:11;;;;;;;0.80;0.80;;;;;;;5.44;73.75;100758.25;4918223;29;20064;-71
2022/01/18 13:00:39;;;;;;;1.63;1.50;;;;;;;5.77;72.49;100755.94;4917971;29;20083;-70
2022/01/18 13:03:04;;;;;;;0.60;0.60;;;;;;;6.26;70.28;100744.69;4917993;29;20185;-70
2022/01/18 13:05:34;;;;;;;5.35;2.08;;;;;;;6.53;67.00;100738.66;4918005;29;20024;-70
2022/01/18 13:08:00;;;;;;;2.60;1.25;;;;;;;6.71;66.45;100744.31;4917969;29;20028;-71
2022/01/18 13:10:43;;;;;;;0.73;0.73;;;;;;;6.71;67.83;100739.16;4917765;29;20031;-70
2022/01/18 13:13:13;;;;;;;1.65;0.77;;;;;;;7.03;65.56;100741.81;4918220;29;20028;-70
2022/01/18 13:15:47;;;;;;;1.60;1.05;;;;;;;7.09;65.16;100729.06;4918123;29;20379;-70
2022/01/18 13:24:57;;;;;;;0.77;0.77;;;;;;;7.22;64.59;100738.91;4918054;29;20084;-70
2022/01/18 13:26:43;;;;;;;1.13;1.13;;;;;;;7.07;66.67;100735.91;4917137;29;20032;-71
2022/01/18 13:29:21;;;;;;;0.85;0.80;;;;;;;7.56;65.56;100725.19;4917738;29;20028;-70
2022/01/18 13:32:20;;;;;;;1.58;1.33;;;;;;;7.38;65.38;100725.56;4917152;29;20036;-71
2022/01/18 13:34:51;;;;;;;0.55;0.55;;;;;;;7.36;64.87;100716.94;4885826;29;20508;-70
2022/01/18 13:37:26;;;;;;;1.08;0.68;;;;;;;7.13;65.38;100715.44;4917270;29;20545;-71
2022/01/18 13:39:57;;;;;;;0.90;0.90;;;;;;;7.42;64.88;100709.34;4917278;29;20028;-71
2022/01/18 13:42:28;;;;;;;0.50;0.50;;;;;;;7.50;64.14;100703.53;4931914;29;20122;-70
2022/01/18 13:45:19;;;;;;;3.85;1.88;;;;;;;7.00;64.76;100706.50;4917357;29;20063;-70
2022/01/18 13:47:51;;;;;;;1.00;1.00;;;;;;;6.91;65.35;100707.13;4917330;29;20389;-73
2022/01/18 13:50:40;;;;;;;0.55;0.55;;;;;;;7.06;65.05;100708.38;4917185;29;20099;-73
2022/01/18 13:53:14;;;;;;;0.90;0.82;;;;;;;7.36;64.93;100701.47;4917440;29;20024;-73
2022/01/18 13:55:50;;;;;;;1.27;1.17;;;;;;;7.47;63.68;100705.19;4931716;29;20094;-71
2022/01/18 13:58:36;;;;;;;0.98;0.90;;;;;;;7.37;64.75;100708.38;4917068;29;20573;-71
2022/01/18 14:01:20;;;;;;;2.88;1.48;;;;;;;7.55;63.76;100699.38;4916891;29;20036;-70
2022/01/18 14:03:50;;;;;;;2.65;1.70;;;;;;;7.85;62.70;100696.66;4916878;29;20024;-71
2022/01/18 14:06:17;;;;;;;0.90;0.90;;;;;;;7.29;64.03;100699.53;4916838;29;20513;-71
2022/01/18 14:08:49;;;;;;;1.08;1.00;;;;;;;7.48;63.43;100699.19;4916856;29;20039;-70
2022/01/18 14:11:17;;;;;;;1.38;1.30;;;;;;;7.28;63.39;100690.06;4917062;29;20028;-70
2022/01/18 14:13:43;;;;;;;0.50;0.50;;;;;;;7.15;63.85;100695.72;4916669;29;20034;-70
2022/01/18 14:16:32;;;;;;;0.80;0.80;;;;;;;6.74;66.18;100702.34;4916634;29;20032;-70
2022/01/18 14:18:59;;;;;;;1.10;1.00;;;;;;;6.21;67.59;100699.91;4916667;29;20107;-70
2022/01/18 14:21:27;;;;;;;0.85;0.85;;;;;;;6.29;69.13;100708.75;4916624;29;20444;-70
2022/01/18 14:24:11;;;;;;;0.60;0.60;;;;;;;6.06;68.84;100714.88;4916563;29;20298;-70
2022/01/18 14:26:40;;;;;;;1.50;1.20;;;;;;;5.78;69.42;100703.69;4916616;29;20052;-70
2022/01/18 14:29:06;;;;;;;1.10;1.10;;;;;;;5.76;70.19;100715.63;4915251;29;20020;-72
2022/01/18 14:31:31;;;;;;;0.50;0.50;;;;;;;5.74;69.82;100706.97;4916115;29;20036;-72
2022/01/18 14:33:57;;;;;;;1.55;1.02;;;;;;;5.85;69.99;100695.34;4916142;29;20497;-72
2022/01/18 14:36:22;;;;;;;0.82;0.82;;;;;;;5.68;69.65;100706.78;4916265;29;20032;-72
2022/01/18 14:38:47;;;;;;;0.77;0.77;;;;;;;5.61;70.32;100710.84;4914891;29;20430;-72
2022/01/18 14:41:21;;;;;;;0.80;0.80;;;;;;;5.73;70.49;100712.06;4916314;29;20445;-72
2022/01/18 14:43:47;;;;;;;1.98;1.60;;;;;;;5.77;70.97;100701.94;4915424;29;20034;-72
2022/01/18 14:46:25;;;;;;;1.48;1.48;;;;;;;5.66;69.84;100703.28;4916084;29;20444;-72
2022/01/18 14:48:54;;;;;;;0.82;0.82;;;;;;;5.67;71.73;100705.03;4916138;29;20087;-72
2022/01/18 14:51:19;;;;;;;0.60;0.60;;;;;;;5.66;70.39;100698.16;4916292;29;20063;-72
2022/01/18 14:53:44;;;;;;;4.93;2.53;;;;;;;5.57;71.37;100698.72;4916023;29;20028;-72
2022/01/18 14:56:10;;;;;;;1.58;1.30;;;;;;;5.62;70.68;100693.72;4916029;29;20039;-72
2022/01/18 14:58:36;;;;;;;1.23;1.23;;;;;;;5.55;71.17;100699.47;4915099;29;20115;-72
2022/01/18 15:01:03;;;;;;;0.75;0.75;;;;;;;5.55;70.22;100702.03;4915768;29;20115;-72
2022/01/18 15:03:29;;;;;;;0.65;0.65;;;;;;;5.39;70.61;100698.97;4915984;29;20028;-72
2022/01/18 15:05:54;;;;;;;0.60;0.60;;;;;;;5.32;70.58;100709.88;4915672;29;20386;-72
2022/01/18 15:08:22;;;;;;;0.73;0.73;;;;;;;5.32;69.99;100702.16;4915329;29;20068;-72
2022/01/18 15:10:48;;;;;;;1.38;1.35;;;;;;;5.33;70.89;100692.75;4915538;29;20478;-72
2022/01/18 15:13:13;;;;;;;0.50;0.50;;;;;;;5.28;70.20;100695.16;4914542;29;20104;-72
2022/01/18 15:15:39;;;;;;;0.52;0.52;;;;;;;5.32;70.22;100691.88;4914552;29;20051;-72
2022/01/18 15:18:04;;;;;;;0.70;0.70;;;;;;;5.27;69.36;100692.53;4915559;29;20028;-72
2022/01/18 15:20:30;;;;;;;1.35;1.25;;;;;;;5.25;69.44;100700.19;4915536;29;20024;-71
2022/01/18 15:22:55;;;;;;;0.73;0.73;;;;;;;5.28;69.95;100697.75;4914419;29;20038;-72
2022/01/18 15:25:21;;;;;;;0.73;0.73;;;;;;;5.26;69.57;100691.66;4915791;29;20032;-72
2022/01/18 15:27:48;;;;;;;0.50;0.50;;;;;;;5.22;70.17;100700.09;4914742;29;20084;-72
2022/01/18 15:30:15;;;;;;;6.03;0.93;;;;;;;5.25;71.11;100699.31;4915255;29;20095;-72
2022/01/18 15:32:42;;;;;;;0.55;0.55;;;;;;;5.19;71.08;100705.13;4915374;29;20032;-72
2022/01/18 15:35:09;;;;;;;0.45;0.45;;;;;;;5.26;70.70;100707.06;4915427;29;20485;-71
2022/01/18 15:37:35;;;;;;;0.80;0.80;;;;;;;5.24;71.17;100701.03;4915367;29;20059;-71
2022/01/18 15:40:03;;;;;;;0.70;0.70;;;;;;;5.10;71.16;100712.50;4915477;29;20052;-71
2022/01/18 15:42:30;;;;;;;0.90;0.90;;;;;;;5.06;71.33;100708.09;4915485;29;20032;-72
2022/01/18 15:44:55;;;;;;;1.85;1.75;;;;;;;5.05;71.87;100704.63;4915305;29;20482;-72
2022/01/18 15:47:21;;;;;;;1.00;1.00;;;;;;;5.06;72.51;100697.81;4915247;29;20042;-72
2022/01/18 15:49:46;;;;;;;1.27;1.13;;;;;;;5.13;71.98;100704.91;4915463;29;20108;-72
2022/01/18 15:52:12;;;;;;;0.50;0.50;;;;;;;5.17;72.54;100701.63;4915661;29;20035;-71
2022/01/18 15:54:38;;;;;;;4.68;0.63;;;;;;;5.10;72.49;100702.22;4915335;29;20067;-72
2022/01/18 15:57:07;;;;;;;0.70;0.70;;;;;;;4.99;72.02;100701.00;4915186;29;20032;-72
2022/01/18 15:59:42;;;;;;;0.95;0.90;;;;;;;5.01;72.92;100700.22;4915241;29;20381;-72
2022/01/18 16:02:08;;;;;;;0.60;0.60;;;;;;;4.99;72.63;100706.13;4913991;29;20038;-72
2022/01/18 16:04:34;;;;;;;3.88;2.13;;;;;;;4.95;72.93;100699.13;4915128;29;20393;-72
2022/01/18 16:07:01;;;;;;;3.40;1.55;;;;;;;4.96;73.57;100700.88;4896286;29;20025;-72
2022/01/18 16:09:27;;;;;;;1.65;1.05;;;;;;;4.92;73.66;100699.00;4896325;29;20051;-72
2022/01/18 16:11:53;;;;;;;0.88;0.88;;;;;;;4.94;73.44;100702.53;4896202;29;20076;-71
2022/01/18 16:14:19;;;;;;;1.30;1.23;;;;;;;5.07;73.83;100704.69;4896414;29;20538;-72
2022/01/18 16:16:44;;;;;;;0.95;0.95;;;;;;;4.98;73.70;100701.78;4896244;29;20113;-72
2022/01/18 16:19:11;;;;;;;0.75;0.75;;;;;;;4.97;73.92;100703.47;4896281;29;20485;-72
2022/01/18 16:21:37;;;;;;;1.55;0.98;;;;;;;5.02;74.54;100707.09;4896074;29;20033;-71
2022/01/18 16:24:03;;;;;;;0.60;0.60;;;;;;;5.10;74.12;100704.81;4896305;29;20072;-72
2022/01/18 16:26:30;;;;;;;1.25;1.15;;;;;;;4.98;74.95;100701.78;4897699;29;20398;-72
2022/01/18 16:28:55;;;;;;;1.42;1.17;;;;;;;4.77;74.47;100702.78;4908506;29;20518;-72
2022/01/18 16:31:21;;;;;;;23.63;1.10;;;;;;;4.79;75.07;100703.72;4918134;29;20047;-72
2022/01/18 16:33:46;;;;;;;0.80;0.80;;;;;;;4.70;75.22;100703.38;4918414;29;20400;-72